sensor_id;sensor_type;location;lat;lon;timestamp;temperature;humidity
20735;DHT22;10528;52.124;5.196;2022-09-03T00:00:26;18.80;98.20
20735;DHT22;10528;52.124;5.196;2022-09-03T00:03:19;18.80;98.20
20735;DHT22;10528;52.124;5.196;2022-09-03T00:08:57;18.70;98.50
20735;DHT22;10528;52.124;5.196;2022-09-03T00:11:38;18.70;98.40
20735;DHT22;10528;52.124;5.196;2022-09-03T00:15:10;18.70;98.50
20735;DHT22;10528;52.124;5.196;2022-09-03T00:17:28;18.70;98.60
20735;DHT22;10528;52.124;5.196;2022-09-03T00:20:03;18.60;98.50
20735;DHT22;10528;52.124;5.196;2022-09-03T00:22:38;18.60;98.60
20735;DHT22;10528;52.124;5.196;2022-09-03T00:25:11;18.50;98.70
20735;DHT22;10528;52.124;5.196;2022-09-03T00:27:44;18.50;98.80
20735;DHT22;10528;52.124;5.196;2022-09-03T00:30:17;18.50;99.00
20735;DHT22;10528;52.124;5.196;2022-09-03T00:32:49;18.40;99.00
20735;DHT22;10528;52.124;5.196;2022-09-03T00:38:36;18.40;99.00
20735;DHT22;10528;52.124;5.196;2022-09-03T00:41:05;18.40;99.20
20735;DHT22;10528;52.124;5.196;2022-09-03T00:43:52;18.40;99.20
20735;DHT22;10528;52.124;5.196;2022-09-03T00:50:20;18.30;99.30
20735;DHT22;10528;52.124;5.196;2022-09-03T00:53:10;18.40;99.40
20735;DHT22;10528;52.124;5.196;2022-09-03T00:56:03;18.40;99.50
20735;DHT22;10528;52.124;5.196;2022-09-03T01:05:07;18.20;99.50
20735;DHT22;10528;52.124;5.196;2022-09-03T01:11:27;18.20;99.70
20735;DHT22;10528;52.124;5.196;2022-09-03T01:17:08;18.20;99.80
20735;DHT22;10528;52.124;5.196;2022-09-03T01:23:11;18.20;99.80
20735;DHT22;10528;52.124;5.196;2022-09-03T01:28:29;18.20;99.90
20735;DHT22;10528;52.124;5.196;2022-09-03T01:31:34;18.20;99.90
20735;DHT22;10528;52.124;5.196;2022-09-03T01:40:37;18.20;99.90
20735;DHT22;10528;52.124;5.196;2022-09-03T01:43:39;18.20;99.90
20735;DHT22;10528;52.124;5.196;2022-09-03T01:46:23;18.20;99.90
20735;DHT22;10528;52.124;5.196;2022-09-03T01:49:14;18.20;99.90
20735;DHT22;10528;52.124;5.196;2022-09-03T01:52:13;18.30;99.90
20735;DHT22;10528;52.124;5.196;2022-09-03T01:55:05;18.20;99.90
20735;DHT22;10528;52.124;5.196;2022-09-03T01:58:17;18.20;99.90
20735;DHT22;10528;52.124;5.196;2022-09-03T02:00:56;18.10;99.90
20735;DHT22;10528;52.124;5.196;2022-09-03T02:03:35;18.10;99.90
20735;DHT22;10528;52.124;5.196;2022-09-03T02:06:08;18.00;99.90
20735;DHT22;10528;52.124;5.196;2022-09-03T02:08:37;18.10;99.90
20735;DHT22;10528;52.124;5.196;2022-09-03T02:11:07;18.00;99.90
20735;DHT22;10528;52.124;5.196;2022-09-03T02:13:41;18.00;99.90
20735;DHT22;10528;52.124;5.196;2022-09-03T02:16:21;17.90;99.90
20735;DHT22;10528;52.124;5.196;2022-09-03T02:18:55;17.90;99.90
20735;DHT22;10528;52.124;5.196;2022-09-03T02:21:34;17.90;99.90
20735;DHT22;10528;52.124;5.196;2022-09-03T02:24:05;17.80;99.90
20735;DHT22;10528;52.124;5.196;2022-09-03T02:26:35;17.80;99.90
20735;DHT22;10528;52.124;5.196;2022-09-03T02:29:02;17.70;99.90
20735;DHT22;10528;52.124;5.196;2022-09-03T02:31:30;17.70;99.90
20735;DHT22;10528;52.124;5.196;2022-09-03T02:33:57;17.70;99.90
20735;DHT22;10528;52.124;5.196;2022-09-03T02:36:31;17.60;99.90
20735;DHT22;10528;52.124;5.196;2022-09-03T02:39:01;17.50;99.90
20735;DHT22;10528;52.124;5.196;2022-09-03T02:41:28;17.50;99.90
20735;DHT22;10528;52.124;5.196;2022-09-03T02:44:08;17.50;99.90
20735;DHT22;10528;52.124;5.196;2022-09-03T02:47:03;17.50;99.90
20735;DHT22;10528;52.124;5.196;2022-09-03T02:49:32;17.50;99.90
20735;DHT22;10528;52.124;5.196;2022-09-03T02:52:02;17.50;99.90
20735;DHT22;10528;52.124;5.196;2022-09-03T02:54:38;17.50;99.90
20735;DHT22;10528;52.124;5.196;2022-09-03T02:57:07;17.40;99.90
20735;DHT22;10528;52.124;5.196;2022-09-03T02:59:36;17.40;99.90
20735;DHT22;10528;52.124;5.196;2022-09-03T03:02:03;17.40;99.90
20735;DHT22;10528;52.124;5.196;2022-09-03T03:04:31;17.40;99.90
20735;DHT22;10528;52.124;5.196;2022-09-03T03:06:58;17.40;99.90
20735;DHT22;10528;52.124;5.196;2022-09-03T03:09:25;17.40;99.90
20735;DHT22;10528;52.124;5.196;2022-09-03T03:11:52;17.40;99.90
20735;DHT22;10528;52.124;5.196;2022-09-03T03:14:21;17.40;99.90
20735;DHT22;10528;52.124;5.196;2022-09-03T03:16:49;17.40;99.90
20735;DHT22;10528;52.124;5.196;2022-09-03T03:19:16;17.30;99.90
20735;DHT22;10528;52.124;5.196;2022-09-03T03:21:43;17.40;99.90
20735;DHT22;10528;52.124;5.196;2022-09-03T03:24:10;17.40;99.90
20735;DHT22;10528;52.124;5.196;2022-09-03T03:26:37;17.40;99.90
20735;DHT22;10528;52.124;5.196;2022-09-03T03:29:04;17.40;99.90
20735;DHT22;10528;52.124;5.196;2022-09-03T03:31:32;17.30;99.90
20735;DHT22;10528;52.124;5.196;2022-09-03T03:34:01;17.40;99.90
20735;DHT22;10528;52.124;5.196;2022-09-03T03:36:31;17.40;99.90
20735;DHT22;10528;52.124;5.196;2022-09-03T03:38:59;17.30;99.90
20735;DHT22;10528;52.124;5.196;2022-09-03T03:41:29;17.30;99.90
20735;DHT22;10528;52.124;5.196;2022-09-03T03:43:59;17.30;99.90
20735;DHT22;10528;52.124;5.196;2022-09-03T03:46:30;17.30;99.90
20735;DHT22;10528;52.124;5.196;2022-09-03T03:48:59;17.20;99.90
20735;DHT22;10528;52.124;5.196;2022-09-03T03:51:27;17.20;99.90
20735;DHT22;10528;52.124;5.196;2022-09-03T03:53:55;17.20;99.90
20735;DHT22;10528;52.124;5.196;2022-09-03T03:56:27;17.10;99.90
20735;DHT22;10528;52.124;5.196;2022-09-03T03:58:54;17.10;99.90
20735;DHT22;10528;52.124;5.196;2022-09-03T04:01:24;17.10;99.90
20735;DHT22;10528;52.124;5.196;2022-09-03T04:03:54;17.10;99.90
20735;DHT22;10528;52.124;5.196;2022-09-03T04:06:22;17.10;99.90
20735;DHT22;10528;52.124;5.196;2022-09-03T04:08:50;17.10;99.90
20735;DHT22;10528;52.124;5.196;2022-09-03T04:11:19;17.00;99.90
20735;DHT22;10528;52.124;5.196;2022-09-03T04:13:49;17.00;99.90
20735;DHT22;10528;52.124;5.196;2022-09-03T04:16:26;17.00;99.90
20735;DHT22;10528;52.124;5.196;2022-09-03T04:18:55;17.00;99.90
20735;DHT22;10528;52.124;5.196;2022-09-03T04:21:24;17.00;99.90
20735;DHT22;10528;52.124;5.196;2022-09-03T04:23:54;17.00;99.90
20735;DHT22;10528;52.124;5.196;2022-09-03T04:26:28;16.90;99.90
20735;DHT22;10528;52.124;5.196;2022-09-03T04:29:03;16.90;99.90
20735;DHT22;10528;52.124;5.196;2022-09-03T04:31:31;16.80;99.90
20735;DHT22;10528;52.124;5.196;2022-09-03T04:33:59;16.80;99.90
20735;DHT22;10528;52.124;5.196;2022-09-03T04:36:28;16.80;99.90
20735;DHT22;10528;52.124;5.196;2022-09-03T04:38:58;16.80;99.90
20735;DHT22;10528;52.124;5.196;2022-09-03T04:41:29;16.80;99.90
20735;DHT22;10528;52.124;5.196;2022-09-03T04:43:59;16.80;99.90
20735;DHT22;10528;52.124;5.196;2022-09-03T04:46:27;16.80;99.90
20735;DHT22;10528;52.124;5.196;2022-09-03T04:48:58;16.90;99.90
20735;DHT22;10528;52.124;5.196;2022-09-03T04:51:26;16.80;99.90
20735;DHT22;10528;52.124;5.196;2022-09-03T04:53:55;16.80;99.90
20735;DHT22;10528;52.124;5.196;2022-09-03T04:56:29;16.80;99.90
20735;DHT22;10528;52.124;5.196;2022-09-03T04:59:03;16.80;99.90
20735;DHT22;10528;52.124;5.196;2022-09-03T05:01:33;16.60;99.90
20735;DHT22;10528;52.124;5.196;2022-09-03T05:04:01;16.70;99.90
20735;DHT22;10528;52.124;5.196;2022-09-03T05:06:29;16.70;99.90
20735;DHT22;10528;52.124;5.196;2022-09-03T05:08:57;16.70;99.90
20735;DHT22;10528;52.124;5.196;2022-09-03T05:11:25;16.50;99.90
20735;DHT22;10528;52.124;5.196;2022-09-03T05:13:56;16.60;99.90
20735;DHT22;10528;52.124;5.196;2022-09-03T05:16:25;16.50;99.90
20735;DHT22;10528;52.124;5.196;2022-09-03T05:18:55;16.50;99.90
20735;DHT22;10528;52.124;5.196;2022-09-03T05:21:25;16.50;99.90
20735;DHT22;10528;52.124;5.196;2022-09-03T05:23:54;16.50;99.90
20735;DHT22;10528;52.124;5.196;2022-09-03T05:26:27;16.50;99.90
20735;DHT22;10528;52.124;5.196;2022-09-03T05:28:57;16.40;99.90
20735;DHT22;10528;52.124;5.196;2022-09-03T05:31:29;16.50;99.90
20735;DHT22;10528;52.124;5.196;2022-09-03T05:34:00;16.50;99.90
20735;DHT22;10528;52.124;5.196;2022-09-03T05:36:30;16.50;99.90
20735;DHT22;10528;52.124;5.196;2022-09-03T05:39:00;16.50;99.90
20735;DHT22;10528;52.124;5.196;2022-09-03T05:41:28;16.50;99.90
20735;DHT22;10528;52.124;5.196;2022-09-03T05:43:56;16.50;99.90
20735;DHT22;10528;52.124;5.196;2022-09-03T05:46:26;16.60;99.90
20735;DHT22;10528;52.124;5.196;2022-09-03T05:48:58;16.60;99.90
20735;DHT22;10528;52.124;5.196;2022-09-03T05:51:28;16.50;99.90
20735;DHT22;10528;52.124;5.196;2022-09-03T05:53:56;16.60;99.90
20735;DHT22;10528;52.124;5.196;2022-09-03T05:56:25;16.70;99.90
20735;DHT22;10528;52.124;5.196;2022-09-03T05:58:57;16.70;99.90
20735;DHT22;10528;52.124;5.196;2022-09-03T06:01:28;16.80;99.90
20735;DHT22;10528;52.124;5.196;2022-09-03T06:03:58;16.80;99.90
20735;DHT22;10528;52.124;5.196;2022-09-03T06:06:29;16.70;99.90
20735;DHT22;10528;52.124;5.196;2022-09-03T06:09:00;16.80;99.90
20735;DHT22;10528;52.124;5.196;2022-09-03T06:11:33;16.90;99.90
20735;DHT22;10528;52.124;5.196;2022-09-03T06:14:03;16.90;99.90
20735;DHT22;10528;52.124;5.196;2022-09-03T06:16:35;16.90;99.90
20735;DHT22;10528;52.124;5.196;2022-09-03T06:19:07;16.90;99.90
20735;DHT22;10528;52.124;5.196;2022-09-03T06:21:37;17.10;99.90
20735;DHT22;10528;52.124;5.196;2022-09-03T06:24:16;17.20;99.90
20735;DHT22;10528;52.124;5.196;2022-09-03T06:26:45;17.20;99.90
20735;DHT22;10528;52.124;5.196;2022-09-03T06:29:13;17.30;99.90
20735;DHT22;10528;52.124;5.196;2022-09-03T06:31:40;17.40;99.90
20735;DHT22;10528;52.124;5.196;2022-09-03T06:34:08;17.50;99.90
20735;DHT22;10528;52.124;5.196;2022-09-03T06:36:34;17.60;99.90
20735;DHT22;10528;52.124;5.196;2022-09-03T06:39:01;17.80;99.90
20735;DHT22;10528;52.124;5.196;2022-09-03T06:41:30;17.90;99.90
20735;DHT22;10528;52.124;5.196;2022-09-03T06:44:03;18.00;99.90
20735;DHT22;10528;52.124;5.196;2022-09-03T06:46:33;18.30;99.90
20735;DHT22;10528;52.124;5.196;2022-09-03T06:49:01;18.30;99.90
20735;DHT22;10528;52.124;5.196;2022-09-03T06:51:30;18.20;99.90
20735;DHT22;10528;52.124;5.196;2022-09-03T06:54:06;18.40;99.90
20735;DHT22;10528;52.124;5.196;2022-09-03T06:56:36;18.50;99.90
20735;DHT22;10528;52.124;5.196;2022-09-03T06:59:12;18.50;99.90
20735;DHT22;10528;52.124;5.196;2022-09-03T07:01:41;18.40;99.90
20735;DHT22;10528;52.124;5.196;2022-09-03T07:04:13;18.60;99.90
20735;DHT22;10528;52.124;5.196;2022-09-03T07:06:44;18.80;99.90
20735;DHT22;10528;52.124;5.196;2022-09-03T07:09:12;18.70;99.90
20735;DHT22;10528;52.124;5.196;2022-09-03T07:11:41;18.90;99.90
20735;DHT22;10528;52.124;5.196;2022-09-03T07:14:16;18.90;99.90
20735;DHT22;10528;52.124;5.196;2022-09-03T07:16:44;19.10;99.90
20735;DHT22;10528;52.124;5.196;2022-09-03T07:19:12;19.10;99.90
20735;DHT22;10528;52.124;5.196;2022-09-03T07:21:40;19.20;99.90
20735;DHT22;10528;52.124;5.196;2022-09-03T07:24:15;19.20;99.90
20735;DHT22;10528;52.124;5.196;2022-09-03T07:26:43;19.30;99.90
20735;DHT22;10528;52.124;5.196;2022-09-03T07:29:11;19.30;99.90
20735;DHT22;10528;52.124;5.196;2022-09-03T07:31:41;19.40;99.90
20735;DHT22;10528;52.124;5.196;2022-09-03T07:34:11;19.50;99.90
20735;DHT22;10528;52.124;5.196;2022-09-03T07:36:44;19.60;99.90
20735;DHT22;10528;52.124;5.196;2022-09-03T07:39:15;19.60;99.90
20735;DHT22;10528;52.124;5.196;2022-09-03T07:41:44;19.60;99.90
20735;DHT22;10528;52.124;5.196;2022-09-03T07:44:13;19.70;99.90
20735;DHT22;10528;52.124;5.196;2022-09-03T07:46:42;19.90;99.90
20735;DHT22;10528;52.124;5.196;2022-09-03T07:49:11;19.80;99.90
20735;DHT22;10528;52.124;5.196;2022-09-03T07:51:38;19.90;99.90
20735;DHT22;10528;52.124;5.196;2022-09-03T07:54:07;20.10;99.90
20735;DHT22;10528;52.124;5.196;2022-09-03T07:56:37;20.10;99.90
20735;DHT22;10528;52.124;5.196;2022-09-03T07:59:06;20.10;99.90
20735;DHT22;10528;52.124;5.196;2022-09-03T08:01:34;20.20;99.90
20735;DHT22;10528;52.124;5.196;2022-09-03T08:04:02;20.30;99.90
20735;DHT22;10528;52.124;5.196;2022-09-03T08:06:34;20.30;99.90
20735;DHT22;10528;52.124;5.196;2022-09-03T08:09:05;20.30;99.90
20735;DHT22;10528;52.124;5.196;2022-09-03T08:11:37;20.40;99.90
20735;DHT22;10528;52.124;5.196;2022-09-03T08:14:07;20.40;99.90
20735;DHT22;10528;52.124;5.196;2022-09-03T08:16:41;20.40;99.90
20735;DHT22;10528;52.124;5.196;2022-09-03T08:19:11;20.50;99.90
20735;DHT22;10528;52.124;5.196;2022-09-03T08:21:39;20.30;99.90
20735;DHT22;10528;52.124;5.196;2022-09-03T08:24:10;20.50;99.90
20735;DHT22;10528;52.124;5.196;2022-09-03T08:26:40;20.70;99.90
20735;DHT22;10528;52.124;5.196;2022-09-03T08:29:16;20.80;99.90
20735;DHT22;10528;52.124;5.196;2022-09-03T08:31:43;21.00;99.90
20735;DHT22;10528;52.124;5.196;2022-09-03T08:34:10;20.90;99.90
20735;DHT22;10528;52.124;5.196;2022-09-03T08:36:39;21.10;99.90
20735;DHT22;10528;52.124;5.196;2022-09-03T08:39:09;21.20;99.90
20735;DHT22;10528;52.124;5.196;2022-09-03T08:42:38;21.30;99.90
20735;DHT22;10528;52.124;5.196;2022-09-03T08:44:54;21.40;99.90
20735;DHT22;10528;52.124;5.196;2022-09-03T08:47:29;21.40;99.90
20735;DHT22;10528;52.124;5.196;2022-09-03T08:55:52;21.70;99.40
20735;DHT22;10528;52.124;5.196;2022-09-03T08:58:25;21.90;99.90
20735;DHT22;10528;52.124;5.196;2022-09-03T09:00:56;22.00;99.10
20735;DHT22;10528;52.124;5.196;2022-09-03T09:18:07;22.40;98.10
20735;DHT22;10528;52.124;5.196;2022-09-03T09:21:08;22.40;98.50
20735;DHT22;10528;52.124;5.196;2022-09-03T09:23:47;22.60;97.50
20735;DHT22;10528;52.124;5.196;2022-09-03T09:26:17;22.60;98.00
20735;DHT22;10528;52.124;5.196;2022-09-03T09:29:01;22.70;97.70
20735;DHT22;10528;52.124;5.196;2022-09-03T09:31:36;22.90;97.20
20735;DHT22;10528;52.124;5.196;2022-09-03T09:34:07;23.10;96.80
20735;DHT22;10528;52.124;5.196;2022-09-03T09:36:47;23.30;96.80
20735;DHT22;10528;52.124;5.196;2022-09-03T09:39:17;23.40;97.00
20735;DHT22;10528;52.124;5.196;2022-09-03T09:42:05;23.40;96.20
20735;DHT22;10528;52.124;5.196;2022-09-03T09:44:38;23.60;96.10
20735;DHT22;10528;52.124;5.196;2022-09-03T09:47:13;23.50;96.20
20735;DHT22;10528;52.124;5.196;2022-09-03T09:52:26;24.00;95.90
20735;DHT22;10528;52.124;5.196;2022-09-03T09:55:10;24.10;95.80
20735;DHT22;10528;52.124;5.196;2022-09-03T09:57:41;24.20;95.70
20735;DHT22;10528;52.124;5.196;2022-09-03T10:00:11;24.10;95.50
20735;DHT22;10528;52.124;5.196;2022-09-03T10:02:47;24.20;95.60
20735;DHT22;10528;52.124;5.196;2022-09-03T10:05:25;24.40;94.60
20735;DHT22;10528;52.124;5.196;2022-09-03T10:07:58;24.50;95.40
20735;DHT22;10528;52.124;5.196;2022-09-03T10:10:26;24.60;95.40
20735;DHT22;10528;52.124;5.196;2022-09-03T10:13:07;24.40;94.40
20735;DHT22;10528;52.124;5.196;2022-09-03T10:18:42;24.60;93.80
20735;DHT22;10528;52.124;5.196;2022-09-03T10:21:29;24.80;95.20
20735;DHT22;10528;52.124;5.196;2022-09-03T10:27:09;25.00;93.90
20735;DHT22;10528;52.124;5.196;2022-09-03T10:29:40;25.10;93.50
20735;DHT22;10528;52.124;5.196;2022-09-03T10:32:21;25.10;92.80
20735;DHT22;10528;52.124;5.196;2022-09-03T10:35:29;25.30;93.30
20735;DHT22;10528;52.124;5.196;2022-09-03T10:38:19;25.20;92.60
20735;DHT22;10528;52.124;5.196;2022-09-03T10:40:51;25.10;93.00
20735;DHT22;10528;52.124;5.196;2022-09-03T10:46:34;25.30;92.30
20735;DHT22;10528;52.124;5.196;2022-09-03T10:49:32;25.50;93.60
20735;DHT22;10528;52.124;5.196;2022-09-03T11:06:53;25.70;91.80
20735;DHT22;10528;52.124;5.196;2022-09-03T11:15:49;25.80;91.50
20735;DHT22;10528;52.124;5.196;2022-09-03T11:18:21;25.90;92.40
20735;DHT22;10528;52.124;5.196;2022-09-03T11:21:00;25.50;92.50
20735;DHT22;10528;52.124;5.196;2022-09-03T11:23:44;25.80;92.80
20735;DHT22;10528;52.124;5.196;2022-09-03T11:26:22;26.00;92.60
20735;DHT22;10528;52.124;5.196;2022-09-03T11:29:02;26.10;91.70
20735;DHT22;10528;52.124;5.196;2022-09-03T11:31:45;25.80;91.30
20735;DHT22;10528;52.124;5.196;2022-09-03T11:34:47;25.90;91.30
20735;DHT22;10528;52.124;5.196;2022-09-03T11:37:21;25.90;91.30
20735;DHT22;10528;52.124;5.196;2022-09-03T11:40:06;26.00;91.30
20735;DHT22;10528;52.124;5.196;2022-09-03T11:42:40;26.10;91.50
20735;DHT22;10528;52.124;5.196;2022-09-03T11:45:20;26.20;91.80
20735;DHT22;10528;52.124;5.196;2022-09-03T11:48:01;26.10;91.10
20735;DHT22;10528;52.124;5.196;2022-09-03T11:50:31;26.30;91.00
20735;DHT22;10528;52.124;5.196;2022-09-03T11:55:59;26.10;91.00
20735;DHT22;10528;52.124;5.196;2022-09-03T11:58:39;26.10;91.30
20735;DHT22;10528;52.124;5.196;2022-09-03T12:01:10;26.10;91.60
20735;DHT22;10528;52.124;5.196;2022-09-03T12:18:07;26.70;91.00
20735;DHT22;10528;52.124;5.196;2022-09-03T12:20:58;26.60;91.60
20735;DHT22;10528;52.124;5.196;2022-09-03T12:23:28;26.60;90.70
20735;DHT22;10528;52.124;5.196;2022-09-03T12:26:05;26.40;91.00
20735;DHT22;10528;52.124;5.196;2022-09-03T12:28:46;26.20;91.00
20735;DHT22;10528;52.124;5.196;2022-09-03T12:31:20;26.20;91.20
20735;DHT22;10528;52.124;5.196;2022-09-03T12:34:10;26.10;91.40
20735;DHT22;10528;52.124;5.196;2022-09-03T12:36:40;26.20;91.70
20735;DHT22;10528;52.124;5.196;2022-09-03T12:39:10;26.50;91.90
20735;DHT22;10528;52.124;5.196;2022-09-03T12:47:11;26.60;91.70
20735;DHT22;10528;52.124;5.196;2022-09-03T12:50:05;26.60;91.70
20735;DHT22;10528;52.124;5.196;2022-09-03T12:52:56;26.50;91.50
20735;DHT22;10528;52.124;5.196;2022-09-03T12:58:08;26.50;91.70
20735;DHT22;10528;52.124;5.196;2022-09-03T13:00:47;26.40;92.00
20735;DHT22;10528;52.124;5.196;2022-09-03T13:03:45;26.60;92.90
20735;DHT22;10528;52.124;5.196;2022-09-03T13:06:20;26.50;92.50
20735;DHT22;10528;52.124;5.196;2022-09-03T13:08:56;26.70;92.30
20735;DHT22;10528;52.124;5.196;2022-09-03T13:11:32;26.60;91.90
20735;DHT22;10528;52.124;5.196;2022-09-03T13:14:04;26.60;91.90
20735;DHT22;10528;52.124;5.196;2022-09-03T13:22:17;26.70;91.30
20735;DHT22;10528;52.124;5.196;2022-09-03T13:34:24;26.40;91.40
20735;DHT22;10528;52.124;5.196;2022-09-03T13:39:45;26.50;91.70
20735;DHT22;10528;52.124;5.196;2022-09-03T13:42:35;26.50;91.60
20735;DHT22;10528;52.124;5.196;2022-09-03T13:48:12;26.40;91.20
20735;DHT22;10528;52.124;5.196;2022-09-03T13:51:16;26.40;91.80
20735;DHT22;10528;52.124;5.196;2022-09-03T13:54:13;26.40;90.80
20735;DHT22;10528;52.124;5.196;2022-09-03T14:00:05;26.40;90.90
20735;DHT22;10528;52.124;5.196;2022-09-03T14:08:11;26.30;91.00
20735;DHT22;10528;52.124;5.196;2022-09-03T14:10:56;26.30;91.70
20735;DHT22;10528;52.124;5.196;2022-09-03T14:13:42;26.20;90.60
20735;DHT22;10528;52.124;5.196;2022-09-03T14:22:33;26.20;91.40
20735;DHT22;10528;52.124;5.196;2022-09-03T14:25:15;26.20;91.70
20735;DHT22;10528;52.124;5.196;2022-09-03T14:27:48;26.20;91.80
20735;DHT22;10528;52.124;5.196;2022-09-03T14:30:54;26.20;92.20
20735;DHT22;10528;52.124;5.196;2022-09-03T14:36:29;26.10;91.40
20735;DHT22;10528;52.124;5.196;2022-09-03T14:51:00;26.20;88.80
20735;DHT22;10528;52.124;5.196;2022-09-03T14:54:11;26.30;87.60
20735;DHT22;10528;52.124;5.196;2022-09-03T15:00:05;26.30;88.90
20735;DHT22;10528;52.124;5.196;2022-09-03T15:11:53;26.30;88.00
20735;DHT22;10528;52.124;5.196;2022-09-03T15:14:38;26.30;88.10
20735;DHT22;10528;52.124;5.196;2022-09-03T15:17:36;26.30;88.80
20735;DHT22;10528;52.124;5.196;2022-09-03T15:26:49;26.30;87.90
20735;DHT22;10528;52.124;5.196;2022-09-03T15:29:35;26.20;89.60
20735;DHT22;10528;52.124;5.196;2022-09-03T15:38:27;26.20;88.50
20735;DHT22;10528;52.124;5.196;2022-09-03T15:41:10;26.30;88.50
20735;DHT22;10528;52.124;5.196;2022-09-03T15:43:50;26.30;88.40
20735;DHT22;10528;52.124;5.196;2022-09-03T15:55:38;26.30;88.90
20735;DHT22;10528;52.124;5.196;2022-09-03T15:58:39;26.20;87.70
20735;DHT22;10528;52.124;5.196;2022-09-03T16:07:06;26.20;88.60
20735;DHT22;10528;52.124;5.196;2022-09-03T16:18:55;26.10;88.10
20735;DHT22;10528;52.124;5.196;2022-09-03T16:24:46;26.10;88.00
20735;DHT22;10528;52.124;5.196;2022-09-03T16:30:12;26.10;88.20
20735;DHT22;10528;52.124;5.196;2022-09-03T16:33:14;26.10;88.80
20735;DHT22;10528;52.124;5.196;2022-09-03T16:44:53;25.90;90.80
20735;DHT22;10528;52.124;5.196;2022-09-03T16:48:08;25.90;90.80
20735;DHT22;10528;52.124;5.196;2022-09-03T16:53:50;25.90;90.80
20735;DHT22;10528;52.124;5.196;2022-09-03T16:56:53;25.80;90.90
20735;DHT22;10528;52.124;5.196;2022-09-03T17:09:05;25.70;90.80
20735;DHT22;10528;52.124;5.196;2022-09-03T17:15:07;25.70;91.20
20735;DHT22;10528;52.124;5.196;2022-09-03T17:21:17;25.60;90.90
20735;DHT22;10528;52.124;5.196;2022-09-03T17:24:01;25.60;91.20
20735;DHT22;10528;52.124;5.196;2022-09-03T17:30:04;25.50;91.80
20735;DHT22;10528;52.124;5.196;2022-09-03T17:41:44;25.40;91.90
20735;DHT22;10528;52.124;5.196;2022-09-03T17:47:34;25.30;92.60
20735;DHT22;10528;52.124;5.196;2022-09-03T17:52:38;25.10;94.30
20735;DHT22;10528;52.124;5.196;2022-09-03T17:58:13;24.80;95.60
20735;DHT22;10528;52.124;5.196;2022-09-03T18:03:44;24.50;97.60
20735;DHT22;10528;52.124;5.196;2022-09-03T18:12:08;24.20;98.00
20735;DHT22;10528;52.124;5.196;2022-09-03T18:14:46;24.00;98.30
20735;DHT22;10528;52.124;5.196;2022-09-03T18:17:38;23.90;98.60
20735;DHT22;10528;52.124;5.196;2022-09-03T18:20:12;23.70;98.30
20735;DHT22;10528;52.124;5.196;2022-09-03T18:23:06;23.60;99.30
20735;DHT22;10528;52.124;5.196;2022-09-03T18:26:07;23.50;99.60
20735;DHT22;10528;52.124;5.196;2022-09-03T18:29:02;23.40;99.50
20735;DHT22;10528;52.124;5.196;2022-09-03T18:31:51;23.30;99.90
20735;DHT22;10528;52.124;5.196;2022-09-03T18:34:36;23.20;99.90
20735;DHT22;10528;52.124;5.196;2022-09-03T18:37:25;23.10;99.90
20735;DHT22;10528;52.124;5.196;2022-09-03T18:40:24;23.00;99.90
20735;DHT22;10528;52.124;5.196;2022-09-03T18:43:46;22.90;99.90
20735;DHT22;10528;52.124;5.196;2022-09-03T18:47:02;22.80;99.90
20735;DHT22;10528;52.124;5.196;2022-09-03T18:53:31;22.60;99.90
20735;DHT22;10528;52.124;5.196;2022-09-03T18:56:34;22.50;99.90
20735;DHT22;10528;52.124;5.196;2022-09-03T19:03:03;22.30;99.90
20735;DHT22;10528;52.124;5.196;2022-09-03T19:06:12;22.10;99.90
20735;DHT22;10528;52.124;5.196;2022-09-03T19:09:47;22.10;99.90
20735;DHT22;10528;52.124;5.196;2022-09-03T19:22:36;21.70;99.90
20735;DHT22;10528;52.124;5.196;2022-09-03T19:25:25;21.60;99.90
20735;DHT22;10528;52.124;5.196;2022-09-03T19:31:20;21.50;99.90
20735;DHT22;10528;52.124;5.196;2022-09-03T19:37:18;21.30;99.90
20735;DHT22;10528;52.124;5.196;2022-09-03T19:40:30;21.30;99.90
20735;DHT22;10528;52.124;5.196;2022-09-03T19:44:09;21.20;99.90
20735;DHT22;10528;52.124;5.196;2022-09-03T19:47:07;21.20;99.90
20735;DHT22;10528;52.124;5.196;2022-09-03T19:50:20;21.10;99.90
20735;DHT22;10528;52.124;5.196;2022-09-03T19:53:14;21.00;99.90
20735;DHT22;10528;52.124;5.196;2022-09-03T19:56:09;20.90;99.90
20735;DHT22;10528;52.124;5.196;2022-09-03T19:59:10;20.90;99.90
20735;DHT22;10528;52.124;5.196;2022-09-03T20:02:02;20.80;99.90
20735;DHT22;10528;52.124;5.196;2022-09-03T20:05:01;20.80;99.90
20735;DHT22;10528;52.124;5.196;2022-09-03T20:07:51;20.70;99.90
20735;DHT22;10528;52.124;5.196;2022-09-03T20:10:42;20.60;99.90
20735;DHT22;10528;52.124;5.196;2022-09-03T20:13:14;20.60;99.90
20735;DHT22;10528;52.124;5.196;2022-09-03T20:16:05;20.60;99.90
20735;DHT22;10528;52.124;5.196;2022-09-03T20:19:03;20.50;99.90
20735;DHT22;10528;52.124;5.196;2022-09-03T20:27:29;20.40;99.90
20735;DHT22;10528;52.124;5.196;2022-09-03T20:30:12;20.30;99.90
20735;DHT22;10528;52.124;5.196;2022-09-03T20:32:51;20.30;99.90
20735;DHT22;10528;52.124;5.196;2022-09-03T20:35:33;20.20;99.90
20735;DHT22;10528;52.124;5.196;2022-09-03T20:44:14;20.10;99.90
20735;DHT22;10528;52.124;5.196;2022-09-03T20:49:43;20.00;99.90
20735;DHT22;10528;52.124;5.196;2022-09-03T20:55:42;19.90;99.90
20735;DHT22;10528;52.124;5.196;2022-09-03T20:58:33;19.90;99.90
20735;DHT22;10528;52.124;5.196;2022-09-03T21:01:24;19.80;99.90
20735;DHT22;10528;52.124;5.196;2022-09-03T21:04:22;19.80;99.90
20735;DHT22;10528;52.124;5.196;2022-09-03T21:07:25;19.80;99.90
20735;DHT22;10528;52.124;5.196;2022-09-03T21:10:02;19.70;99.90
20735;DHT22;10528;52.124;5.196;2022-09-03T21:12:37;19.60;99.90
20735;DHT22;10528;52.124;5.196;2022-09-03T21:15:54;19.60;99.90
20735;DHT22;10528;52.124;5.196;2022-09-03T21:18:28;19.60;99.90
20735;DHT22;10528;52.124;5.196;2022-09-03T21:21:26;19.60;99.90
20735;DHT22;10528;52.124;5.196;2022-09-03T21:24:43;19.50;99.90
20735;DHT22;10528;52.124;5.196;2022-09-03T21:27:18;19.40;99.90
20735;DHT22;10528;52.124;5.196;2022-09-03T21:30:10;19.40;99.90
20735;DHT22;10528;52.124;5.196;2022-09-03T21:35:29;19.30;99.90
20735;DHT22;10528;52.124;5.196;2022-09-03T21:38:15;19.20;99.90
20735;DHT22;10528;52.124;5.196;2022-09-03T21:40:51;19.20;99.90
20735;DHT22;10528;52.124;5.196;2022-09-03T21:46:23;19.20;99.90
20735;DHT22;10528;52.124;5.196;2022-09-03T21:49:05;19.10;99.90
20735;DHT22;10528;52.124;5.196;2022-09-03T21:51:46;19.10;99.90
20735;DHT22;10528;52.124;5.196;2022-09-03T21:54:32;19.10;99.90
20735;DHT22;10528;52.124;5.196;2022-09-03T21:57:23;19.00;99.90
20735;DHT22;10528;52.124;5.196;2022-09-03T22:02:55;19.00;99.90
20735;DHT22;10528;52.124;5.196;2022-09-03T22:05:28;18.90;99.90
20735;DHT22;10528;52.124;5.196;2022-09-03T22:08:10;18.90;99.90